Leyden, New York
Current Conditions -  °F | °C
As of 4:53 PM on Saturday 20 Dec 2014 (Local Time) from KRME Reporting Station
Clear Clear  
Wind Chill: 19°   Ceiling: Unl
Heat Index: 25°   Visibility: 10mi
Dew Point: 18°   Wind: 5mph
Humidity: 75%   Direction: 90°E
Pressure: 30.28"   Gusts: NA
Location:  43.6044°N, 75.2344°W
Report Text: KRME 202153Z 09004KT 10SM CLR M04/M08 A3028 RMK AO2 SLP261 T10391078
Loading
Personal Weather Stations






























Interactive Weather Map New forecast layout! Learn more

10-Day Weather Forecast

Advertisements
Track Severe Weather on mobile